Tuesday, May 24, 2016, 11:33 AM EDT

KPTB, Petersburg, Dinwiddie County Airport

Location: Petersburg, VA, United States Lat: 37.183
Local Time: 11:33 AM EDT (15:33 GMT) Lon: -77.517
Time Zone: US/Eastern Elev: 193 ft

Show me the last for .
Show Decoded

2016-05-24 11:10 METAR KPTB 241510Z AUTO 30006KT 10SM CLR A3006 RMK AO2 =
2016-05-24 10:56 METAR KPTB 241456Z AUTO 29007KT 10SM CLR 24/13 A3006 RMK AO2 =
2016-05-24 10:15 METAR KPTB 241415Z AUTO 27007KT 10SM CLR 23/13 A3006 RMK AO2 T02300131 =
2016-05-24 09:55 METAR KPTB 241355Z AUTO 25005KT 10SM CLR 22/14 A3006 RMK AO2 T02220135 =
2016-05-24 09:35 METAR KPTB 241335Z AUTO 25006KT 10SM CLR 22/14 A3006 RMK AO2 T02160139 =
2016-05-24 09:15 METAR KPTB 241315Z AUTO 26005KT 10SM CLR 20/15 A3006 RMK AO2 T02040146 =
2016-05-24 08:55 METAR KPTB 241255Z AUTO 23005KT 10SM CLR 19/14 A3006 RMK AO2 T01900142 =
2016-05-24 08:35 METAR KPTB 241235Z AUTO 24007KT 10SM CLR 18/14 A3005 RMK AO2 LTG DSNT NW
                 T01770143 =
2016-05-24 08:15 METAR KPTB 241215Z AUTO 22005KT 10SM CLR 16/15 A3005 RMK AO2 T01620149 =
2016-05-24 07:55 METAR KPTB 241155Z AUTO 24003KT 10SM CLR 15/15 A3005 RMK AO2 T01510148 10151
                 20095 =
2016-05-24 07:35 METAR KPTB 241135Z AUTO 25003KT 10SM CLR 13/13 A3003 RMK AO2 LTG DSNT NW
                 T01330133 =
2016-05-24 07:15 METAR KPTB 241115Z AUTO 22003KT 10SM CLR 13/13 A3003 RMK AO2 T01250125 =
2016-05-24 06:55 METAR KPTB 241055Z AUTO 00000KT 10SM CLR 12/12 A3003 RMK AO2 T01190119 =
2016-05-24 06:35 METAR KPTB 241035Z AUTO 23004KT 10SM CLR 11/11 A3002 RMK AO2 T01120112 =
2016-05-24 06:15 METAR KPTB 241015Z AUTO 22003KT 10SM CLR 10/10 A3001 RMK AO2 T00990099 =
2016-05-24 05:55 METAR KPTB 240955Z AUTO 00000KT 7SM CLR 10/10 A3000 RMK AO2 T01000100 =
2016-05-24 05:35 METAR KPTB 240935Z AUTO 00000KT 10SM CLR 10/10 A3000 RMK AO2 T01020102 =
2016-05-24 05:15 METAR KPTB 240915Z AUTO 00000KT 10SM CLR 10/10 A2999 RMK AO2 T00990099 =
2016-05-24 04:55 METAR KPTB 240855Z AUTO 00000KT 7SM CLR 10/10 A2999 RMK AO2 T00990099 =
2016-05-24 04:35 METAR KPTB 240835Z AUTO 00000KT 10SM CLR 10/10 A2998 RMK AO2 T01020102 =
2016-05-24 04:15 METAR KPTB 240815Z AUTO 00000KT 7SM CLR 10/10 A2998 RMK AO2 T01030103 =
2016-05-24 03:55 METAR KPTB 240755Z AUTO 00000KT 10SM CLR 11/11 A2998 RMK AO2 T01050105 =
2016-05-24 03:35 METAR KPTB 240735Z AUTO 00000KT 10SM CLR 11/11 A2998 RMK AO2 T01070107 =
2016-05-24 03:15 METAR KPTB 240715Z AUTO 00000KT 10SM CLR 11/11 A2998 RMK AO2 T01090109 =
2016-05-24 02:55 METAR KPTB 240655Z AUTO 00000KT 10SM CLR 11/11 A2998 RMK AO2 T01110111 =
2016-05-24 02:35 METAR KPTB 240635Z AUTO 00000KT 10SM CLR 12/12 A2998 RMK AO2 T01160116 =
2016-05-24 02:15 METAR KPTB 240615Z AUTO 00000KT 10SM CLR 11/11 A2998 RMK AO2 T01130113 =
2016-05-24 01:55 METAR KPTB 240555Z AUTO 22003KT 10SM CLR 12/12 A2998 RMK AO2 T01200120 10175
                 20120 =
2016-05-24 01:35 METAR KPTB 240535Z AUTO 00000KT 10SM CLR 12/12 A2999 RMK AO2 T01240124 =
2016-05-24 01:15 METAR KPTB 240515Z AUTO 26003KT 10SM CLR 14/14 A2999 RMK AO2 T01350135 =
2016-05-24 00:55 METAR KPTB 240455Z AUTO 00000KT 10SM CLR 13/13 A2999 RMK AO2 T01320132 402040127
                 =
2016-05-24 00:35 METAR KPTB 240435Z AUTO 00000KT 10SM CLR 14/14 A2998 RMK AO2 T01430143 =
2016-05-24 00:15 METAR KPTB 240415Z AUTO 29003KT 10SM CLR 16/13 A2998 RMK AO2 T01570133 =
2016-05-23 23:55 METAR KPTB 240355Z AUTO 28004KT 10SM CLR 16/13 A2998 RMK AO2 T01630131 =
2016-05-23 23:35 METAR KPTB 240335Z AUTO 05003KT 10SM BKN100 17/13 A2998 RMK AO2 T01690132 =
2016-05-23 23:15 METAR KPTB 240315Z AUTO 26008KT 10SM OVC090 17/13 A2998 RMK AO2 T01670131 =
2016-05-23 22:55 METAR KPTB 240255Z AUTO 26008KT 10SM OVC090 17/13 A2999 RMK AO2 T01680133 =
2016-05-23 22:35 METAR KPTB 240235Z AUTO 27006KT 10SM -DZ OVC100 17/14 A2999 RMK AO2 LTG DSNT SE
                 T01660135 =
2016-05-23 22:15 METAR KPTB 240215Z AUTO 28006KT 10SM -RA BKN090 OVC120 17/14 A3000 RMK AO2 LTG
                 DSNT SE T01670136 =
2016-05-23 21:55 METAR KPTB 240155Z AUTO 29003KT 10SM SCT100 BKN120 16/14 A3000 RMK AO2 T01620143
                 =
2016-05-23 21:35 METAR KPTB 240135Z AUTO 27003KT 10SM SCT085 15/15 A2999 RMK AO2 T01540154 =
2016-05-23 21:15 METAR KPTB 240115Z AUTO 00000KT 10SM VCTS BKN085 BKN110 15/15 A2998 RMK AO2
                 T01510151 =
2016-05-23 20:55 METAR KPTB 240055Z AUTO 00000KT 10SM SCT085 OVC100 15/15 A2997 RMK AO2 T01530153
                 =
2016-05-23 20:35 METAR KPTB 240035Z AUTO 00000KT 10SM BKN095 16/16 A2997 RMK AO2 T01570157 =
2016-05-23 20:15 METAR KPTB 240015Z AUTO 00000KT 10SM SCT090 16/16 A2997 RMK AO2 LTG DSNT W AND
                 NW T01630158 =
2016-05-23 19:55 METAR KPTB 232355Z AUTO 23003KT 10SM OVC090 18/14 A2997 RMK AO2 T01750140 10204
                 20163 =
2016-05-23 19:35 METAR KPTB 232335Z AUTO 26003KT 10SM SCT090 18/13 A2997 RMK AO2 T01820134 =
2016-05-23 19:15 METAR KPTB 232315Z AUTO 26004KT 10SM CLR 19/14 A2995 RMK AO2 T01870138 =
2016-05-23 18:55 METAR KPTB 232255Z AUTO 24003KT 10SM CLR 19/13 A2995 RMK AO2 T01920131 =
2016-05-23 18:35 METAR KPTB 232235Z AUTO 27004KT 10SM CLR 20/13 A2994 RMK AO2 T01950125 =
2016-05-23 18:15 METAR KPTB 232215Z AUTO 28004KT 10SM SCT070 20/12 A2994 RMK AO2 T01950119 =
2016-05-23 17:55 METAR KPTB 232155Z AUTO 31005KT 10SM SCT070 SCT110 20/13 A2994 RMK AO2 LTG DSNT
                 E T02000127 =
2016-05-23 17:35 METAR KPTB 232135Z AUTO 28006KT 10SM BKN110 20/13 A2994 RMK AO2 LTG DSNT N
                 T02020131 =
2016-05-23 17:15 METAR KPTB 232115Z AUTO 29003KT 10SM OVC110 20/12 A2994 RMK AO2 T02040123 =
2016-05-23 16:55 METAR KPTB 232055Z AUTO 29004KT 10SM BKN110 20/13 A2994 RMK AO2 T01990128 =
2016-05-23 16:35 METAR KPTB 232035Z AUTO 30006KT 10SM BKN100 19/13 A2994 RMK AO2 T01930129 =
2016-05-23 16:15 METAR KPTB 232015Z AUTO 29005KT 10SM -RA SCT070 SCT075 BKN100 19/13 A2994 RMK
                 AO2 T01900132 =
2016-05-23 15:55 METAR KPTB 231955Z AUTO 30005KT 10SM -RA SCT060 BKN070 BKN080 19/14 A2995 RMK
                 AO2 T01910143 =
2016-05-23 15:35 METAR KPTB 231935Z AUTO 31004KT 10SM -RA BKN080 BKN110 19/14 A2996 RMK AO2
                 T01850138 =
2016-05-23 15:15 METAR KPTB 231915Z AUTO 00000KT 7SM -RA OVC080 17/15 A2997 RMK AO2 LTG DSNT N
                 T01720148 =
2016-05-23 14:55 METAR KPTB 231855Z AUTO 00000KT 10SM -RA BKN080 OVC090 17/13 A2997 RMK AO2
                 T01700126 =
2016-05-23 14:35 METAR KPTB 231835Z AUTO 00000KT 10SM -RA BKN070 OVC090 17/13 A2997 RMK AO2
                 T01680127 =
2016-05-23 14:15 METAR KPTB 231815Z AUTO 00000KT 10SM -RA OVC070 17/13 A2998 RMK AO2 T01690131 =
2016-05-23 13:55 METAR KPTB 231755Z AUTO 02006KT 10SM -RA OVC070 17/12 A2998 RMK AO2 T01660119
                 10174 20138 =
2016-05-23 13:35 METAR KPTB 231735Z AUTO 01005KT 10SM -RA OVC080 16/12 A2998 RMK AO2 T01630121 =
2016-05-23 13:15 METAR KPTB 231715Z AUTO 36006KT 10SM RA BKN080 OVC085 16/12 A2997 RMK AO2
                 T01600117 =
2016-05-23 12:55 METAR KPTB 231655Z AUTO 35007KT 10SM OVC080 17/11 A2996 RMK AO2 T01650112 =
2016-05-23 12:35 METAR KPTB 231635Z AUTO 36007KT 10SM OVC080 16/12 A2996 RMK AO2 T01610116 =
2016-05-23 12:15 METAR KPTB 231615Z AUTO 01009G14KT 10SM -RA OVC080 16/12 A2996 RMK AO2 T01550124
                 =
2016-05-23 11:55 METAR KPTB 231555Z AUTO 01009G17KT 10SM -RA SCT046 BKN070 OVC090 16/13 A2996 RMK
                 AO2 T01580125 =
2016-05-23 11:35 METAR KPTB 231535Z AUTO 01010G19KT 10SM -RA SCT019 SCT046 BKN070 16/13 A2996 RMK
                 AO2 T01610132 =

Support USWX by starting your Amazon purchase here.